sensor_id;sensor_type;location;lat;lon;timestamp;temperature;humidity
35463;DHT22;21578;47.892;9.970;2023-04-03T00:01:08;2.20;96.60
35463;DHT22;21578;47.892;9.970;2023-04-03T00:05:54;2.00;96.60
35463;DHT22;21578;47.892;9.970;2023-04-03T00:10:41;1.90;96.60
35463;DHT22;21578;47.892;9.970;2023-04-03T00:15:28;1.90;96.60
35463;DHT22;21578;47.892;9.970;2023-04-03T00:20:17;1.90;96.60
35463;DHT22;21578;47.892;9.970;2023-04-03T00:25:05;1.90;96.60
35463;DHT22;21578;47.892;9.970;2023-04-03T00:29:52;1.90;96.60
35463;DHT22;21578;47.892;9.970;2023-04-03T00:34:38;1.90;96.60
35463;DHT22;21578;47.892;9.970;2023-04-03T00:39:27;1.90;96.60
35463;DHT22;21578;47.892;9.970;2023-04-03T00:44:22;1.80;96.60
35463;DHT22;21578;47.892;9.970;2023-04-03T00:49:29;1.80;96.60
35463;DHT22;21578;47.892;9.970;2023-04-03T00:54:16;1.80;96.60
35463;DHT22;21578;47.892;9.970;2023-04-03T00:59:07;1.80;96.60
35463;DHT22;21578;47.892;9.970;2023-04-03T01:03:55;1.70;96.60
35463;DHT22;21578;47.892;9.970;2023-04-03T01:08:42;1.70;96.60
35463;DHT22;21578;47.892;9.970;2023-04-03T01:13:31;1.70;96.60
35463;DHT22;21578;47.892;9.970;2023-04-03T01:18:20;1.80;96.60
35463;DHT22;21578;47.892;9.970;2023-04-03T01:23:22;1.80;96.60
35463;DHT22;21578;47.892;9.970;2023-04-03T01:28:16;1.80;96.60
35463;DHT22;21578;47.892;9.970;2023-04-03T01:33:04;1.70;96.60
35463;DHT22;21578;47.892;9.970;2023-04-03T01:37:51;1.80;96.60
35463;DHT22;21578;47.892;9.970;2023-04-03T01:42:38;1.80;96.60
35463;DHT22;21578;47.892;9.970;2023-04-03T01:47:25;1.80;96.60
35463;DHT22;21578;47.892;9.970;2023-04-03T01:52:13;1.70;96.60
35463;DHT22;21578;47.892;9.970;2023-04-03T01:57:00;1.60;96.60
35463;DHT22;21578;47.892;9.970;2023-04-03T02:01:47;1.60;96.60
35463;DHT22;21578;47.892;9.970;2023-04-03T02:06:34;1.60;96.60
35463;DHT22;21578;47.892;9.970;2023-04-03T02:11:23;1.50;96.60
35463;DHT22;21578;47.892;9.970;2023-04-03T02:16:11;1.60;96.60
35463;DHT22;21578;47.892;9.970;2023-04-03T02:20:58;1.50;96.60
35463;DHT22;21578;47.892;9.970;2023-04-03T02:25:45;1.60;96.60
35463;DHT22;21578;47.892;9.970;2023-04-03T02:30:35;1.60;96.60
35463;DHT22;21578;47.892;9.970;2023-04-03T02:35:22;1.50;96.60
35463;DHT22;21578;47.892;9.970;2023-04-03T02:40:10;1.40;96.60
35463;DHT22;21578;47.892;9.970;2023-04-03T02:44:58;1.40;96.60
35463;DHT22;21578;47.892;9.970;2023-04-03T02:49:47;1.50;96.60
35463;DHT22;21578;47.892;9.970;2023-04-03T02:54:34;1.50;96.60
35463;DHT22;21578;47.892;9.970;2023-04-03T02:59:21;1.30;96.60
35463;DHT22;21578;47.892;9.970;2023-04-03T03:04:08;1.20;96.60
35463;DHT22;21578;47.892;9.970;2023-04-03T03:08:56;1.20;96.60
35463;DHT22;21578;47.892;9.970;2023-04-03T03:13:43;1.20;96.60
35463;DHT22;21578;47.892;9.970;2023-04-03T03:18:30;1.20;96.60
35463;DHT22;21578;47.892;9.970;2023-04-03T03:23:17;1.10;96.60
35463;DHT22;21578;47.892;9.970;2023-04-03T03:28:06;1.10;96.60
35463;DHT22;21578;47.892;9.970;2023-04-03T03:32:53;1.10;96.60
35463;DHT22;21578;47.892;9.970;2023-04-03T03:37:40;1.00;96.60
35463;DHT22;21578;47.892;9.970;2023-04-03T03:42:28;1.10;96.60
35463;DHT22;21578;47.892;9.970;2023-04-03T03:47:19;1.10;96.60
35463;DHT22;21578;47.892;9.970;2023-04-03T03:52:06;1.00;96.60
35463;DHT22;21578;47.892;9.970;2023-04-03T03:56:55;1.00;96.60
35463;DHT22;21578;47.892;9.970;2023-04-03T04:01:42;1.00;96.60
35463;DHT22;21578;47.892;9.970;2023-04-03T04:06:31;1.00;96.60
35463;DHT22;21578;47.892;9.970;2023-04-03T04:11:18;1.00;96.60
35463;DHT22;21578;47.892;9.970;2023-04-03T04:16:06;1.00;96.60
35463;DHT22;21578;47.892;9.970;2023-04-03T04:20:53;0.90;96.60
35463;DHT22;21578;47.892;9.970;2023-04-03T04:25:43;0.90;96.60
35463;DHT22;21578;47.892;9.970;2023-04-03T04:30:30;0.90;96.60
35463;DHT22;21578;47.892;9.970;2023-04-03T04:35:17;1.00;96.60
35463;DHT22;21578;47.892;9.970;2023-04-03T04:40:05;1.00;96.60
35463;DHT22;21578;47.892;9.970;2023-04-03T04:44:54;1.00;96.60
35463;DHT22;21578;47.892;9.970;2023-04-03T04:49:41;1.10;96.60
35463;DHT22;21578;47.892;9.970;2023-04-03T04:54:27;1.00;96.60
35463;DHT22;21578;47.892;9.970;2023-04-03T04:59:15;0.90;96.60
35463;DHT22;21578;47.892;9.970;2023-04-03T05:04:03;1.00;96.60
35463;DHT22;21578;47.892;9.970;2023-04-03T05:08:50;1.00;96.60
35463;DHT22;21578;47.892;9.970;2023-04-03T05:13:37;1.00;96.60
35463;DHT22;21578;47.892;9.970;2023-04-03T05:18:24;1.10;96.60
35463;DHT22;21578;47.892;9.970;2023-04-03T05:23:12;1.20;96.60
35463;DHT22;21578;47.892;9.970;2023-04-03T05:27:59;1.20;96.60
35463;DHT22;21578;47.892;9.970;2023-04-03T05:32:46;1.10;96.60
35463;DHT22;21578;47.892;9.970;2023-04-03T05:37:33;1.20;96.60
35463;DHT22;21578;47.892;9.970;2023-04-03T05:42:22;1.10;96.60
35463;DHT22;21578;47.892;9.970;2023-04-03T05:47:09;1.10;96.60
35463;DHT22;21578;47.892;9.970;2023-04-03T05:51:56;1.10;96.60
35463;DHT22;21578;47.892;9.970;2023-04-03T05:56:43;1.00;96.60
35463;DHT22;21578;47.892;9.970;2023-04-03T06:01:31;1.00;96.60
35463;DHT22;21578;47.892;9.970;2023-04-03T06:06:19;1.00;96.60
35463;DHT22;21578;47.892;9.970;2023-04-03T06:11:08;1.00;96.60
35463;DHT22;21578;47.892;9.970;2023-04-03T06:15:55;1.00;96.60
35463;DHT22;21578;47.892;9.970;2023-04-03T06:20:45;1.00;96.60
35463;DHT22;21578;47.892;9.970;2023-04-03T06:25:32;1.00;96.60
35463;DHT22;21578;47.892;9.970;2023-04-03T06:30:19;1.00;96.60
35463;DHT22;21578;47.892;9.970;2023-04-03T06:35:07;0.80;96.60
35463;DHT22;21578;47.892;9.970;2023-04-03T06:39:55;0.90;96.60
35463;DHT22;21578;47.892;9.970;2023-04-03T06:44:42;1.00;96.60
35463;DHT22;21578;47.892;9.970;2023-04-03T06:49:29;1.00;96.60
35463;DHT22;21578;47.892;9.970;2023-04-03T06:54:16;1.10;96.60
35463;DHT22;21578;47.892;9.970;2023-04-03T06:59:05;1.10;96.60
35463;DHT22;21578;47.892;9.970;2023-04-03T07:03:52;1.10;96.60
35463;DHT22;21578;47.892;9.970;2023-04-03T07:08:39;1.10;96.60
35463;DHT22;21578;47.892;9.970;2023-04-03T07:13:26;1.20;96.60
35463;DHT22;21578;47.892;9.970;2023-04-03T07:18:14;1.30;96.60
35463;DHT22;21578;47.892;9.970;2023-04-03T07:23:02;1.30;96.60
35463;DHT22;21578;47.892;9.970;2023-04-03T07:27:49;1.20;96.60
35463;DHT22;21578;47.892;9.970;2023-04-03T07:32:36;1.30;96.60
35463;DHT22;21578;47.892;9.970;2023-04-03T07:37:24;1.30;96.60
35463;DHT22;21578;47.892;9.970;2023-04-03T07:42:11;1.40;96.60
35463;DHT22;21578;47.892;9.970;2023-04-03T07:46:59;1.40;96.60
35463;DHT22;21578;47.892;9.970;2023-04-03T07:51:46;1.50;96.60
35463;DHT22;21578;47.892;9.970;2023-04-03T07:56:35;1.60;96.60
35463;DHT22;21578;47.892;9.970;2023-04-03T08:01:22;1.60;96.60
35463;DHT22;21578;47.892;9.970;2023-04-03T08:06:09;1.60;96.60
35463;DHT22;21578;47.892;9.970;2023-04-03T08:10:58;1.80;96.60
35463;DHT22;21578;47.892;9.970;2023-04-03T08:15:47;1.90;96.60
35463;DHT22;21578;47.892;9.970;2023-04-03T08:20:34;1.80;96.60
35463;DHT22;21578;47.892;9.970;2023-04-03T08:25:21;2.00;96.60
35463;DHT22;21578;47.892;9.970;2023-04-03T08:30:09;1.90;96.60
35463;DHT22;21578;47.892;9.970;2023-04-03T08:34:57;1.80;96.60
35463;DHT22;21578;47.892;9.970;2023-04-03T08:39:44;1.90;96.60
35463;DHT22;21578;47.892;9.970;2023-04-03T08:44:39;2.00;96.60
35463;DHT22;21578;47.892;9.970;2023-04-03T08:49:35;1.90;96.60
35463;DHT22;21578;47.892;9.970;2023-04-03T08:54:28;1.90;96.60
35463;DHT22;21578;47.892;9.970;2023-04-03T08:59:24;2.20;96.60
35463;DHT22;21578;47.892;9.970;2023-04-03T09:04:14;2.00;96.60
35463;DHT22;21578;47.892;9.970;2023-04-03T09:09:12;2.00;96.60
35463;DHT22;21578;47.892;9.970;2023-04-03T09:14:04;2.00;96.60
35463;DHT22;21578;47.892;9.970;2023-04-03T09:19:02;2.10;96.60
35463;DHT22;21578;47.892;9.970;2023-04-03T09:23:53;2.30;96.60
35463;DHT22;21578;47.892;9.970;2023-04-03T09:28:42;2.40;96.60
35463;DHT22;21578;47.892;9.970;2023-04-03T09:33:31;2.60;96.60
35463;DHT22;21578;47.892;9.970;2023-04-03T09:38:20;2.80;96.60
35463;DHT22;21578;47.892;9.970;2023-04-03T09:43:26;3.00;96.60
35463;DHT22;21578;47.892;9.970;2023-04-03T09:48:17;3.00;96.60
35463;DHT22;21578;47.892;9.970;2023-04-03T09:53:23;2.90;96.60
35463;DHT22;21578;47.892;9.970;2023-04-03T09:58:29;3.10;96.60
35463;DHT22;21578;47.892;9.970;2023-04-03T10:03:25;3.20;96.60
35463;DHT22;21578;47.892;9.970;2023-04-03T10:08:23;3.30;96.60
35463;DHT22;21578;47.892;9.970;2023-04-03T10:13:12;3.40;96.60
35463;DHT22;21578;47.892;9.970;2023-04-03T10:18:07;3.50;96.60
35463;DHT22;21578;47.892;9.970;2023-04-03T10:23:06;3.70;96.60
35463;DHT22;21578;47.892;9.970;2023-04-03T10:28:06;3.70;96.60
35463;DHT22;21578;47.892;9.970;2023-04-03T10:33:05;3.90;96.60
35463;DHT22;21578;47.892;9.970;2023-04-03T10:38:03;4.10;96.60
35463;DHT22;21578;47.892;9.970;2023-04-03T10:42:55;3.90;94.60
35463;DHT22;21578;47.892;9.970;2023-04-03T10:47:55;3.80;96.30
35463;DHT22;21578;47.892;9.970;2023-04-03T10:52:50;3.90;94.40
35463;DHT22;21578;47.892;9.970;2023-04-03T10:57:40;3.90;96.50
35463;DHT22;21578;47.892;9.970;2023-04-03T11:02:29;4.10;95.30
35463;DHT22;21578;47.892;9.970;2023-04-03T11:07:20;3.90;95.50
35463;DHT22;21578;47.892;9.970;2023-04-03T11:12:12;3.80;95.70
35463;DHT22;21578;47.892;9.970;2023-04-03T11:17:19;3.90;94.60
35463;DHT22;21578;47.892;9.970;2023-04-03T11:22:12;4.40;96.60
35463;DHT22;21578;47.892;9.970;2023-04-03T11:27:04;4.70;94.10
35463;DHT22;21578;47.892;9.970;2023-04-03T11:32:07;4.50;92.00
35463;DHT22;21578;47.892;9.970;2023-04-03T11:36:58;4.50;92.60
35463;DHT22;21578;47.892;9.970;2023-04-03T11:41:47;4.60;95.30
35463;DHT22;21578;47.892;9.970;2023-04-03T11:46:51;4.80;93.40
35463;DHT22;21578;47.892;9.970;2023-04-03T11:51:41;4.50;92.30
35463;DHT22;21578;47.892;9.970;2023-04-03T11:56:30;4.50;91.70
35463;DHT22;21578;47.892;9.970;2023-04-03T12:01:42;4.10;91.30
35463;DHT22;21578;47.892;9.970;2023-04-03T12:07:00;4.30;91.80
35463;DHT22;21578;47.892;9.970;2023-04-03T12:11:48;4.40;90.50
35463;DHT22;21578;47.892;9.970;2023-04-03T12:16:43;4.30;91.50
35463;DHT22;21578;47.892;9.970;2023-04-03T12:22:10;4.50;90.90
35463;DHT22;21578;47.892;9.970;2023-04-03T12:27:25;4.50;88.90
35463;DHT22;21578;47.892;9.970;2023-04-03T12:32:24;4.50;88.10
35463;DHT22;21578;47.892;9.970;2023-04-03T12:37:26;4.50;87.80
35463;DHT22;21578;47.892;9.970;2023-04-03T12:42:40;4.40;90.00
35463;DHT22;21578;47.892;9.970;2023-04-03T12:47:29;4.40;90.80
35463;DHT22;21578;47.892;9.970;2023-04-03T12:52:29;4.60;91.20
35463;DHT22;21578;47.892;9.970;2023-04-03T12:57:18;4.60;92.00
35463;DHT22;21578;47.892;9.970;2023-04-03T13:02:21;4.70;91.80
35463;DHT22;21578;47.892;9.970;2023-04-03T13:07:24;4.90;92.30
35463;DHT22;21578;47.892;9.970;2023-04-03T13:12:14;4.90;90.30
35463;DHT22;21578;47.892;9.970;2023-04-03T13:17:05;4.20;90.40
35463;DHT22;21578;47.892;9.970;2023-04-03T13:21:57;4.10;90.10
35463;DHT22;21578;47.892;9.970;2023-04-03T13:26:46;4.00;91.00
35463;DHT22;21578;47.892;9.970;2023-04-03T13:31:34;3.90;91.20
35463;DHT22;21578;47.892;9.970;2023-04-03T13:36:25;3.90;91.60
35463;DHT22;21578;47.892;9.970;2023-04-03T13:41:25;3.80;91.00
35463;DHT22;21578;47.892;9.970;2023-04-03T13:46:25;3.90;92.80
35463;DHT22;21578;47.892;9.970;2023-04-03T13:51:19;4.20;91.70
35463;DHT22;21578;47.892;9.970;2023-04-03T13:56:09;4.30;91.30
35463;DHT22;21578;47.892;9.970;2023-04-03T14:01:00;4.40;88.20
35463;DHT22;21578;47.892;9.970;2023-04-03T14:05:50;4.40;89.30
35463;DHT22;21578;47.892;9.970;2023-04-03T14:10:37;4.80;89.40
35463;DHT22;21578;47.892;9.970;2023-04-03T14:15:27;4.70;88.10
35463;DHT22;21578;47.892;9.970;2023-04-03T14:20:16;4.80;87.50
35463;DHT22;21578;47.892;9.970;2023-04-03T14:25:05;4.50;89.30
35463;DHT22;21578;47.892;9.970;2023-04-03T14:29:54;4.20;91.70
35463;DHT22;21578;47.892;9.970;2023-04-03T14:34:42;3.90;92.30
35463;DHT22;21578;47.892;9.970;2023-04-03T14:39:29;3.80;94.20
35463;DHT22;21578;47.892;9.970;2023-04-03T14:44:18;3.80;94.00
35463;DHT22;21578;47.892;9.970;2023-04-03T14:49:12;3.90;93.90
35463;DHT22;21578;47.892;9.970;2023-04-03T14:54:00;4.00;94.20
35463;DHT22;21578;47.892;9.970;2023-04-03T14:58:47;4.00;93.40
35463;DHT22;21578;47.892;9.970;2023-04-03T15:03:37;3.90;93.60
35463;DHT22;21578;47.892;9.970;2023-04-03T15:08:26;4.00;93.80
35463;DHT22;21578;47.892;9.970;2023-04-03T15:13:15;4.10;93.20
35463;DHT22;21578;47.892;9.970;2023-04-03T15:18:02;4.10;92.90
35463;DHT22;21578;47.892;9.970;2023-04-03T15:22:51;4.10;92.50
35463;DHT22;21578;47.892;9.970;2023-04-03T15:27:39;4.10;91.30
35463;DHT22;21578;47.892;9.970;2023-04-03T15:32:26;4.10;90.60
35463;DHT22;21578;47.892;9.970;2023-04-03T15:37:13;4.10;89.60
35463;DHT22;21578;47.892;9.970;2023-04-03T15:42:02;4.10;88.80
35463;DHT22;21578;47.892;9.970;2023-04-03T15:46:51;4.10;89.00
35463;DHT22;21578;47.892;9.970;2023-04-03T15:51:38;4.20;89.10
35463;DHT22;21578;47.892;9.970;2023-04-03T15:56:25;4.30;87.80
35463;DHT22;21578;47.892;9.970;2023-04-03T16:01:13;4.20;87.10
35463;DHT22;21578;47.892;9.970;2023-04-03T16:06:01;4.10;87.00
35463;DHT22;21578;47.892;9.970;2023-04-03T16:10:50;4.00;86.70
35463;DHT22;21578;47.892;9.970;2023-04-03T16:15:38;4.10;86.70
35463;DHT22;21578;47.892;9.970;2023-04-03T16:20:27;4.10;86.80
35463;DHT22;21578;47.892;9.970;2023-04-03T16:25:14;4.20;87.40
35463;DHT22;21578;47.892;9.970;2023-04-03T16:30:01;4.10;86.20
35463;DHT22;21578;47.892;9.970;2023-04-03T16:34:48;3.90;87.00
35463;DHT22;21578;47.892;9.970;2023-04-03T16:39:36;3.80;88.00
35463;DHT22;21578;47.892;9.970;2023-04-03T16:44:23;3.80;88.90
35463;DHT22;21578;47.892;9.970;2023-04-03T16:49:10;3.70;86.10
35463;DHT22;21578;47.892;9.970;2023-04-03T16:53:57;3.60;86.90
35463;DHT22;21578;47.892;9.970;2023-04-03T16:58:45;3.70;86.60
35463;DHT22;21578;47.892;9.970;2023-04-03T17:03:32;3.60;86.90
35463;DHT22;21578;47.892;9.970;2023-04-03T17:08:19;3.50;87.80
35463;DHT22;21578;47.892;9.970;2023-04-03T17:13:06;3.60;85.90
35463;DHT22;21578;47.892;9.970;2023-04-03T17:17:54;3.50;84.80
35463;DHT22;21578;47.892;9.970;2023-04-03T17:22:41;3.50;85.10
35463;DHT22;21578;47.892;9.970;2023-04-03T17:27:29;3.50;84.10
35463;DHT22;21578;47.892;9.970;2023-04-03T17:32:17;3.40;85.00
35463;DHT22;21578;47.892;9.970;2023-04-03T17:37:05;3.40;85.50
35463;DHT22;21578;47.892;9.970;2023-04-03T17:41:52;3.40;85.20
35463;DHT22;21578;47.892;9.970;2023-04-03T17:46:40;3.30;85.30
35463;DHT22;21578;47.892;9.970;2023-04-03T17:51:27;3.30;85.00
35463;DHT22;21578;47.892;9.970;2023-04-03T17:56:17;3.20;85.40
35463;DHT22;21578;47.892;9.970;2023-04-03T18:01:09;3.10;85.80
35463;DHT22;21578;47.892;9.970;2023-04-03T18:05:55;3.10;86.40
35463;DHT22;21578;47.892;9.970;2023-04-03T18:10:42;3.00;85.50
35463;DHT22;21578;47.892;9.970;2023-04-03T18:15:31;2.90;85.60
35463;DHT22;21578;47.892;9.970;2023-04-03T18:20:18;2.80;85.50
35463;DHT22;21578;47.892;9.970;2023-04-03T18:25:06;2.80;85.00
35463;DHT22;21578;47.892;9.970;2023-04-03T18:29:55;2.70;85.30
35463;DHT22;21578;47.892;9.970;2023-04-03T18:34:44;2.60;85.30
35463;DHT22;21578;47.892;9.970;2023-04-03T18:39:32;2.50;85.30
35463;DHT22;21578;47.892;9.970;2023-04-03T18:44:22;2.40;85.90
35463;DHT22;21578;47.892;9.970;2023-04-03T18:49:11;2.30;86.00
35463;DHT22;21578;47.892;9.970;2023-04-03T18:54:00;2.30;85.70
35463;DHT22;21578;47.892;9.970;2023-04-03T18:58:47;2.20;86.10
35463;DHT22;21578;47.892;9.970;2023-04-03T19:03:35;2.10;85.70
35463;DHT22;21578;47.892;9.970;2023-04-03T19:08:22;2.00;85.40
35463;DHT22;21578;47.892;9.970;2023-04-03T19:13:11;2.00;85.40
35463;DHT22;21578;47.892;9.970;2023-04-03T19:17:58;2.00;84.70
35463;DHT22;21578;47.892;9.970;2023-04-03T19:22:45;1.90;84.40
35463;DHT22;21578;47.892;9.970;2023-04-03T19:27:32;1.90;84.70
35463;DHT22;21578;47.892;9.970;2023-04-03T19:32:20;1.80;85.70
35463;DHT22;21578;47.892;9.970;2023-04-03T19:37:07;1.80;85.70
35463;DHT22;21578;47.892;9.970;2023-04-03T19:41:54;1.80;85.50
35463;DHT22;21578;47.892;9.970;2023-04-03T19:46:41;1.70;85.70
35463;DHT22;21578;47.892;9.970;2023-04-03T19:51:29;1.70;84.80
35463;DHT22;21578;47.892;9.970;2023-04-03T19:56:16;1.60;84.90
35463;DHT22;21578;47.892;9.970;2023-04-03T20:01:05;1.50;85.60
35463;DHT22;21578;47.892;9.970;2023-04-03T20:05:53;1.50;85.30
35463;DHT22;21578;47.892;9.970;2023-04-03T20:10:43;1.50;85.80
35463;DHT22;21578;47.892;9.970;2023-04-03T20:15:30;1.40;84.60
35463;DHT22;21578;47.892;9.970;2023-04-03T20:20:24;1.30;84.80
35463;DHT22;21578;47.892;9.970;2023-04-03T20:25:11;1.30;85.00
35463;DHT22;21578;47.892;9.970;2023-04-03T20:30:00;1.30;84.50
35463;DHT22;21578;47.892;9.970;2023-04-03T20:34:47;1.20;84.80
35463;DHT22;21578;47.892;9.970;2023-04-03T20:39:35;1.20;85.10
35463;DHT22;21578;47.892;9.970;2023-04-03T20:44:22;1.10;84.90
35463;DHT22;21578;47.892;9.970;2023-04-03T20:49:10;1.00;85.50
35463;DHT22;21578;47.892;9.970;2023-04-03T20:53:57;1.00;86.10
35463;DHT22;21578;47.892;9.970;2023-04-03T20:58:44;0.90;86.50
35463;DHT22;21578;47.892;9.970;2023-04-03T21:03:33;0.90;86.70
35463;DHT22;21578;47.892;9.970;2023-04-03T21:19:19;0.80;86.80
35463;DHT22;21578;47.892;9.970;2023-04-03T21:24:06;0.80;86.50
35463;DHT22;21578;47.892;9.970;2023-04-03T21:28:54;0.60;87.60
35463;DHT22;21578;47.892;9.970;2023-04-03T21:33:41;0.70;87.90
35463;DHT22;21578;47.892;9.970;2023-04-03T21:38:29;0.70;87.50
35463;DHT22;21578;47.892;9.970;2023-04-03T21:43:16;0.60;88.10
35463;DHT22;21578;47.892;9.970;2023-04-03T21:48:03;0.50;88.60
35463;DHT22;21578;47.892;9.970;2023-04-03T21:52:52;0.50;88.40
35463;DHT22;21578;47.892;9.970;2023-04-03T21:57:40;0.40;89.00
35463;DHT22;21578;47.892;9.970;2023-04-03T22:02:28;0.40;88.70
35463;DHT22;21578;47.892;9.970;2023-04-03T22:07:16;0.30;89.30
35463;DHT22;21578;47.892;9.970;2023-04-03T22:12:04;0.30;89.50
35463;DHT22;21578;47.892;9.970;2023-04-03T22:16:54;0.20;90.20
35463;DHT22;21578;47.892;9.970;2023-04-03T22:21:42;0.10;90.60
35463;DHT22;21578;47.892;9.970;2023-04-03T22:26:29;0.00;91.70
35463;DHT22;21578;47.892;9.970;2023-04-03T22:31:16;-0.10;92.00
35463;DHT22;21578;47.892;9.970;2023-04-03T22:36:08;-0.10;92.90
35463;DHT22;21578;47.892;9.970;2023-04-03T22:40:56;-0.10;93.10
35463;DHT22;21578;47.892;9.970;2023-04-03T22:45:47;-0.20;93.70
35463;DHT22;21578;47.892;9.970;2023-04-03T22:50:35;-0.30;94.40
35463;DHT22;21578;47.892;9.970;2023-04-03T22:55:25;-0.40;94.90
35463;DHT22;21578;47.892;9.970;2023-04-03T23:00:13;-0.40;95.30
35463;DHT22;21578;47.892;9.970;2023-04-03T23:15:36;-0.60;96.00
35463;DHT22;21578;47.892;9.970;2023-04-03T23:20:23;-0.60;96.60
35463;DHT22;21578;47.892;9.970;2023-04-03T23:25:10;-0.70;96.40
35463;DHT22;21578;47.892;9.970;2023-04-03T23:29:57;-0.80;96.50
35463;DHT22;21578;47.892;9.970;2023-04-03T23:34:46;-0.90;96.60
35463;DHT22;21578;47.892;9.970;2023-04-03T23:39:32;-1.00;96.60
35463;DHT22;21578;47.892;9.970;2023-04-03T23:44:19;-1.00;96.60
35463;DHT22;21578;47.892;9.970;2023-04-03T23:49:06;-1.10;96.60
35463;DHT22;21578;47.892;9.970;2023-04-03T23:53:55;-1.10;96.60
35463;DHT22;21578;47.892;9.970;2023-04-03T23:58:42;-1.10;96.60
